Time;durP1;ratioP1;P1;durP2;ratioP2;P2;SDS_P1;SDS_P2;PMS_P1;PMS_P2;Temp;Humidity;BMP_temperature;BMP_pressure;BME280_temperature;BME280_humidity;BME280_pressure;Samples;Min_cycle;Max_cycle;Signal;HPM_P1;HPM_P2
2021/08/29 00:01:20;;;;;;;4.80;3.55;;;19.80;78.20;;;;;;5052003;28;20082;-69
2021/08/29 00:03:46;;;;;;;5.63;3.50;;;19.80;78.20;;;;;;5052168;28;20025;-70
2021/08/29 00:06:11;;;;;;;5.25;3.55;;;19.80;78.30;;;;;;5053294;28;20037;-69
2021/08/29 00:08:37;;;;;;;6.18;3.42;;;19.70;78.20;;;;;;5052135;28;20029;-69
2021/08/29 00:11:03;;;;;;;5.28;3.60;;;19.70;78.30;;;;;;5052124;28;20036;-69
2021/08/29 00:13:28;;;;;;;4.95;3.60;;;19.70;78.40;;;;;;5053447;28;20482;-70
2021/08/29 00:15:54;;;;;;;5.68;3.63;;;19.70;78.60;;;;;;5053829;28;20033;-69
2021/08/29 00:18:20;;;;;;;6.03;3.45;;;19.70;78.70;;;;;;5053265;28;20111;-69
2021/08/29 00:20:46;;;;;;;6.80;4.00;;;19.60;78.70;;;;;;5052269;28;20141;-69
2021/08/29 00:23:12;;;;;;;6.35;3.67;;;19.60;78.60;;;;;;5052007;28;20079;-69
2021/08/29 00:25:38;;;;;;;5.30;3.50;;;19.60;78.80;;;;;;5053032;28;20036;-69
2021/08/29 00:28:05;;;;;;;5.20;3.80;;;19.60;79.10;;;;;;5052121;28;20430;-69
2021/08/29 00:30:31;;;;;;;5.80;3.67;;;19.50;79.10;;;;;;5055869;28;20029;-69
2021/08/29 00:32:56;;;;;;;4.43;3.25;;;19.50;79.10;;;;;;5057034;28;20025;-70
2021/08/29 00:35:22;;;;;;;4.95;3.50;;;19.50;79.20;;;;;;5057176;28;20028;-69
2021/08/29 00:37:48;;;;;;;5.85;3.83;;;19.40;79.20;;;;;;5057002;28;20112;-69
2021/08/29 00:40:21;;;;;;;4.85;3.83;;;19.50;79.50;;;;;;5056662;28;20530;-69
2021/08/29 00:42:50;;;;;;;4.38;3.38;;;19.40;79.70;;;;;;5056671;28;20029;-69
2021/08/29 00:45:23;;;;;;;4.70;3.60;;;19.40;79.70;;;;;;5055840;28;20386;-69
2021/08/29 00:47:49;;;;;;;5.75;3.78;;;19.40;79.90;;;;;;5056903;28;20045;-69
2021/08/29 00:50:16;;;;;;;5.72;3.75;;;19.40;79.90;;;;;;5056839;28;20036;-69
2021/08/29 00:52:42;;;;;;;5.45;3.75;;;19.40;80.00;;;;;;5055245;28;20116;-69
2021/08/29 00:55:10;;;;;;;4.90;3.70;;;19.30;80.00;;;;;;5056631;28;20095;-69
2021/08/29 00:57:38;;;;;;;6.38;3.63;;;19.30;80.00;;;;;;5056580;28;20123;-69
2021/08/29 01:00:05;;;;;;;5.07;3.60;;;19.30;79.90;;;;;;5056437;28;20029;-69
2021/08/29 01:02:32;;;;;;;6.13;3.70;;;19.30;80.00;;;;;;5056381;28;20438;-69
2021/08/29 01:04:59;;;;;;;6.43;3.80;;;19.30;80.10;;;;;;5056484;28;20049;-70
2021/08/29 01:07:50;;;;;;;6.18;3.92;;;19.30;80.20;;;;;;5054941;28;20479;-71
2021/08/29 01:10:22;;;;;;;6.07;4.07;;;19.20;80.30;;;;;;5052245;28;20032;-67
2021/08/29 01:12:54;;;;;;;5.57;3.95;;;19.20;80.70;;;;;;5056883;28;20406;-69
2021/08/29 01:15:22;;;;;;;6.22;3.78;;;19.10;80.60;;;;;;5055049;28;20029;-68
2021/08/29 01:17:49;;;;;;;6.57;4.10;;;19.10;80.80;;;;;;5054695;28;20475;-69
2021/08/29 01:20:48;;;;;;;4.80;3.80;;;19.10;80.70;;;;;;5055157;28;20379;-68
2021/08/29 01:23:14;;;;;;;5.55;3.80;;;19.10;80.50;;;;;;5055807;28;20025;-68
2021/08/29 01:25:52;;;;;;;5.13;3.90;;;19.10;80.50;;;;;;5054624;28;20025;-69
2021/08/29 01:28:18;;;;;;;5.75;4.00;;;19.10;80.50;;;;;;5055759;28;20033;-68
2021/08/29 01:30:44;;;;;;;6.47;3.85;;;19.10;80.50;;;;;;5056330;28;20052;-68
2021/08/29 01:33:10;;;;;;;5.22;3.72;;;19.10;80.60;;;;;;5054143;28;20032;-69
2021/08/29 01:35:38;;;;;;;5.90;3.95;;;19.10;80.70;;;;;;5054718;28;20035;-69
2021/08/29 01:38:06;;;;;;;6.38;4.15;;;19.10;80.80;;;;;;5055659;28;20039;-69
2021/08/29 01:40:32;;;;;;;5.22;3.53;;;19.10;80.50;;;;;;5054371;28;20024;-70
2021/08/29 01:42:59;;;;;;;5.72;3.42;;;19.10;80.40;;;;;;5039713;28;20025;-69
2021/08/29 01:45:26;;;;;;;5.65;3.58;;;19.20;80.30;;;;;;5034984;28;20030;-70
2021/08/29 01:47:56;;;;;;;5.05;3.30;;;19.20;80.20;;;;;;5033767;28;20073;-70
2021/08/29 01:50:23;;;;;;;5.07;3.63;;;19.20;80.20;;;;;;5033452;28;20041;-70
2021/08/29 01:52:48;;;;;;;5.35;3.40;;;19.20;80.20;;;;;;5044060;28;20049;-69
2021/08/29 01:55:14;;;;;;;4.93;3.20;;;19.30;80.10;;;;;;5044853;28;20471;-69
2021/08/29 01:57:40;;;;;;;4.40;3.20;;;19.30;80.00;;;;;;5045691;28;20483;-69
2021/08/29 02:00:07;;;;;;;4.95;3.30;;;19.30;80.00;;;;;;5043168;28;20104;-73
2021/08/29 02:02:33;;;;;;;4.88;3.40;;;19.30;80.20;;;;;;5034260;28;20029;-68
2021/08/29 02:04:59;;;;;;;4.35;3.28;;;19.30;80.30;;;;;;5043076;28;20045;-67
2021/08/29 02:07:41;;;;;;;5.10;3.65;;;19.30;80.20;;;;;;5045194;28;20490;-68
2021/08/29 02:10:09;;;;;;;4.90;3.40;;;19.30;80.20;;;;;;5045683;28;20371;-67
2021/08/29 02:12:41;;;;;;;5.70;3.80;;;19.30;80.00;;;;;;5043708;28;20076;-68
2021/08/29 02:15:21;;;;;;;4.88;3.40;;;19.30;79.80;;;;;;5046318;28;20136;-68
2021/08/29 02:17:48;;;;;;;5.15;4.00;;;19.30;79.50;;;;;;5044129;28;20028;-68
2021/08/29 02:20:18;;;;;;;6.32;3.80;;;19.40;79.50;;;;;;5043365;28;20018;-68
2021/08/29 02:22:45;;;;;;;5.80;4.20;;;19.40;79.50;;;;;;5043193;28;20021;-67
2021/08/29 02:25:11;;;;;;;8.18;4.93;;;19.40;79.40;;;;;;5049407;28;20075;-67
2021/08/29 02:27:38;;;;;;;6.65;4.35;;;19.40;79.50;;;;;;5055024;28;20040;-67
2021/08/29 02:30:06;;;;;;;7.93;4.45;;;19.40;79.50;;;;;;5053306;28;20033;-67
2021/08/29 02:32:33;;;;;;;6.95;3.85;;;19.40;79.70;;;;;;5054427;28;20029;-68
2021/08/29 02:34:59;;;;;;;6.03;4.10;;;19.40;79.60;;;;;;5054731;28;20055;-67
2021/08/29 02:37:26;;;;;;;4.88;3.67;;;19.40;79.50;;;;;;5053624;28;20033;-67
2021/08/29 02:39:55;;;;;;;5.40;4.25;;;19.40;79.50;;;;;;5053461;28;20527;-67
2021/08/29 02:42:21;;;;;;;6.65;3.95;;;19.40;79.50;;;;;;5053600;28;20025;-67
2021/08/29 02:44:47;;;;;;;5.13;3.88;;;19.40;79.40;;;;;;5053281;28;20113;-67
2021/08/29 02:47:13;;;;;;;5.28;3.78;;;19.40;79.40;;;;;;5054436;28;20056;-67
2021/08/29 02:49:40;;;;;;;6.35;3.70;;;19.40;79.40;;;;;;5054448;28;20051;-67
2021/08/29 02:52:06;;;;;;;4.63;3.55;;;19.40;79.50;;;;;;5054338;28;20021;-67
2021/08/29 02:54:35;;;;;;;4.88;3.80;;;19.40;79.40;;;;;;5054707;28;20430;-68
2021/08/29 02:57:02;;;;;;;5.50;4.38;;;19.40;79.20;;;;;;5053087;28;20112;-68
2021/08/29 02:59:28;;;;;;;7.10;4.38;;;19.40;79.10;;;;;;5046942;28;20467;-68
2021/08/29 03:01:54;;;;;;;5.03;3.80;;;19.40;78.90;;;;;;5039228;28;20045;-67
2021/08/29 03:04:19;;;;;;;5.95;4.10;;;19.40;78.90;;;;;;5034155;28;20497;-65
2021/08/29 03:06:45;;;;;;;5.22;4.00;;;19.30;78.90;;;;;;5034520;28;20026;-67
2021/08/29 03:09:11;;;;;;;5.50;4.25;;;19.30;79.10;;;;;;5032794;28;20082;-67
2021/08/29 03:11:37;;;;;;;6.53;4.80;;;19.30;79.30;;;;;;5033226;28;20029;-67
2021/08/29 03:14:04;;;;;;;5.47;3.53;;;19.30;79.10;;;;;;5033988;28;20029;-68
2021/08/29 03:16:33;;;;;;;5.72;3.85;;;19.30;79.20;;;;;;5034319;28;20102;-68
2021/08/29 03:19:00;;;;;;;5.82;4.38;;;19.30;79.40;;;;;;5034037;28;20026;-78
2021/08/29 03:21:26;;;;;;;6.32;3.90;;;19.30;79.60;;;;;;5036904;28;20064;-77
2021/08/29 03:23:52;;;;;;;6.95;3.67;;;19.30;79.60;;;;;;5042444;28;20027;-77
2021/08/29 03:26:18;;;;;;;6.00;3.80;;;19.30;79.60;;;;;;5034211;28;20100;-81
2021/08/29 03:28:44;;;;;;;6.47;3.67;;;19.40;79.50;;;;;;5032345;28;20040;-81
2021/08/29 03:31:09;;;;;;;9.82;3.75;;;19.50;79.60;;;;;;5035707;28;20025;-81
2021/08/29 03:33:38;;;;;;;6.35;3.53;;;19.50;79.50;;;;;;5041045;28;20047;-84
2021/08/29 03:36:05;;;;;;;7.10;3.72;;;19.60;79.40;;;;;;5051152;28;20463;-81
2021/08/29 03:38:32;;;;;;;6.50;3.45;;;19.70;79.40;;;;;;5052579;28;20079;-81
2021/08/29 03:40:59;;;;;;;5.18;3.67;;;19.70;79.30;;;;;;5053367;28;20052;-81
2021/08/29 03:43:25;;;;;;;6.53;4.68;;;19.90;79.20;;;;;;5052438;28;20451;-80
2021/08/29 03:45:51;;;;;;;8.88;3.85;;;20.00;79.20;;;;;;5053843;28;20107;-81
2021/08/29 03:48:17;;;;;;;11.05;3.80;;;20.20;78.70;;;;;;5053633;28;20120;-69
2021/08/29 03:50:46;;;;;;;11.00;4.20;;;20.50;78.10;;;;;;5053359;28;20056;-67
2021/08/29 03:53:13;;;;;;;7.13;4.57;;;20.60;77.40;;;;;;5053686;28;20025;-68
2021/08/29 03:55:40;;;;;;;11.75;3.88;;;20.90;76.80;;;;;;5052333;28;20355;-68
2021/08/29 03:58:07;;;;;;;8.52;4.32;;;21.10;76.10;;;;;;5051874;28;20033;-68
2021/08/29 04:00:33;;;;;;;7.78;4.57;;;21.30;75.20;;;;;;5053178;28;20025;-69
2021/08/29 04:02:58;;;;;;;11.75;4.38;;;21.50;74.50;;;;;;5053339;28;20467;-69
2021/08/29 04:05:24;;;;;;;16.45;5.38;;;21.70;73.90;;;;;;5057159;28;20103;-70
2021/08/29 04:07:51;;;;;;;9.20;5.10;;;22.00;73.30;;;;;;5057619;28;20083;-69
2021/08/29 04:10:20;;;;;;;8.07;4.50;;;22.10;72.80;;;;;;5039555;28;20026;-70
2021/08/29 04:12:47;;;;;;;8.68;4.30;;;22.30;72.00;;;;;;5038200;28;20025;-69
2021/08/29 04:15:13;;;;;;;8.73;5.20;;;22.40;71.60;;;;;;5045615;28;20161;-73
2021/08/29 04:17:39;;;;;;;10.65;6.47;;;22.60;71.10;;;;;;5036026;28;20029;-79
2021/08/29 04:20:05;;;;;;;7.53;4.78;;;22.80;70.80;;;;;;5037794;28;20040;-70
2021/08/29 04:22:31;;;;;;;11.07;4.95;;;23.10;70.30;;;;;;5041952;28;20026;-70
2021/08/29 04:24:57;;;;;;;7.47;4.43;;;23.30;69.80;;;;;;5037481;28;20360;-72
2021/08/29 04:27:23;;;;;;;8.65;4.70;;;23.50;69.20;;;;;;5038932;28;20033;-71
2021/08/29 04:29:49;;;;;;;7.68;3.80;;;23.70;68.60;;;;;;5038889;28;20022;-72
2021/08/29 04:32:17;;;;;;;6.55;3.97;;;23.90;68.10;;;;;;5037467;28;20099;-70
2021/08/29 04:34:43;;;;;;;4.90;3.90;;;24.10;67.50;;;;;;5044767;28;20461;-70
2021/08/29 04:37:09;;;;;;;8.95;4.57;;;24.30;67.10;;;;;;5057010;28;20106;-71
2021/08/29 04:39:38;;;;;;;5.90;4.20;;;24.60;66.40;;;;;;5054845;28;20031;-72
2021/08/29 04:42:04;;;;;;;7.32;3.88;;;24.80;65.80;;;;;;5045324;28;20036;-71
2021/08/29 04:44:30;;;;;;;7.00;3.83;;;25.10;65.80;;;;;;5049504;28;20040;-72
2021/08/29 04:46:56;;;;;;;7.82;4.32;;;25.30;65.10;;;;;;5039783;28;20029;-70
2021/08/29 04:49:22;;;;;;;5.90;4.18;;;25.40;64.80;;;;;;5036776;28;20103;-69
2021/08/29 04:51:47;;;;;;;5.93;4.00;;;25.60;64.30;;;;;;5035300;28;20072;-71
2021/08/29 04:54:13;;;;;;;6.50;3.92;;;25.90;63.90;;;;;;5037064;28;20030;-70
2021/08/29 04:56:39;;;;;;;6.13;3.95;;;26.10;63.00;;;;;;5036466;28;20030;-76
2021/08/29 04:59:05;;;;;;;5.43;4.10;;;26.20;62.60;;;;;;5035463;28;20097;-76
2021/08/29 05:01:31;;;;;;;7.07;4.07;;;26.40;61.80;;;;;;5041207;28;20040;-76
2021/08/29 05:04:00;;;;;;;5.60;3.88;;;26.60;61.70;;;;;;5051630;28;20056;-76
2021/08/29 05:06:28;;;;;;;6.40;4.03;;;26.80;61.40;;;;;;5045315;28;20462;-69
2021/08/29 05:08:54;;;;;;;6.90;4.40;;;27.00;60.80;;;;;;5047934;28;20033;-73
2021/08/29 05:11:23;;;;;;;5.43;3.90;;;27.30;61.10;;;;;;5041743;28;20032;-70
2021/08/29 05:13:48;;;;;;;8.02;4.00;;;27.50;59.50;;;;;;5048575;28;20029;-76
2021/08/29 05:16:14;;;;;;;7.82;5.57;;;27.60;58.90;;;;;;5055071;28;20048;-77
2021/08/29 05:18:40;;;;;;;7.28;4.18;;;27.70;58.50;;;;;;5055954;28;20032;-76
2021/08/29 05:21:05;;;;;;;6.53;4.32;;;27.80;58.10;;;;;;5038021;28;20029;-77
2021/08/29 05:23:31;;;;;;;6.47;4.13;;;28.00;57.70;;;;;;5031777;28;20018;-79
2021/08/29 05:25:58;;;;;;;5.38;4.00;;;28.00;57.80;;;;;;5034588;28;20090;-77
2021/08/29 05:28:24;;;;;;;6.43;4.65;;;28.10;57.60;;;;;;5032922;28;20037;-76
2021/08/29 05:30:49;;;;;;;5.78;3.95;;;28.30;57.70;;;;;;5033934;28;20478;-77
2021/08/29 05:33:15;;;;;;;5.43;4.00;;;28.30;56.70;;;;;;5035031;28;20088;-76
2021/08/29 05:35:41;;;;;;;5.15;3.97;;;28.40;56.80;;;;;;5035691;28;20017;-76
2021/08/29 05:38:07;;;;;;;7.38;4.78;;;28.70;56.50;;;;;;5034650;28;20494;-76
2021/08/29 05:40:32;;;;;;;7.03;4.15;;;28.80;55.80;;;;;;5036057;28;20025;-76
2021/08/29 05:42:58;;;;;;;6.32;4.10;;;29.00;55.70;;;;;;5034971;28;20021;-75
2021/08/29 05:45:24;;;;;;;4.80;3.85;;;29.10;56.00;;;;;;5035749;28;20034;-75
2021/08/29 05:47:49;;;;;;;6.47;4.47;;;29.30;55.30;;;;;;5035886;28;20071;-75
2021/08/29 05:50:15;;;;;;;5.88;4.43;;;29.40;54.60;;;;;;5035526;28;20033;-75
2021/08/29 05:52:41;;;;;;;5.80;4.30;;;29.40;54.60;;;;;;5034081;28;20028;-77
2021/08/29 05:55:07;;;;;;;5.82;4.72;;;29.50;54.20;;;;;;5035446;28;20116;-76
2021/08/29 05:57:33;;;;;;;5.82;4.20;;;29.80;54.20;;;;;;5036028;28;20032;-75
2021/08/29 05:59:58;;;;;;;6.15;4.75;;;30.00;54.10;;;;;;5035950;28;20108;-80
2021/08/29 06:02:24;;;;;;;6.32;4.78;;;30.30;53.60;;;;;;5035251;28;20025;-67
2021/08/29 06:04:49;;;;;;;7.38;5.90;;;30.40;53.40;;;;;;5046603;28;20042;-76
2021/08/29 06:07:15;;;;;;;6.78;5.40;;;30.50;53.10;;;;;;5045609;28;20100;-79
2021/08/29 06:09:41;;;;;;;7.63;5.32;;;30.60;52.50;;;;;;5045011;28;20037;-77
2021/08/29 06:12:07;;;;;;;6.93;4.90;;;30.80;52.30;;;;;;5042951;28;20024;-76
2021/08/29 06:14:33;;;;;;;7.03;4.40;;;31.00;52.10;;;;;;5043625;28;20033;-79
2021/08/29 06:16:58;;;;;;;8.60;5.80;;;31.10;52.40;;;;;;5043028;28;20418;-81
2021/08/29 06:19:24;;;;;;;7.03;5.20;;;31.20;52.00;;;;;;5045474;28;20037;-81
2021/08/29 06:21:50;;;;;;;9.45;4.60;;;31.30;52.10;;;;;;5042419;28;20079;-77
2021/08/29 06:24:15;;;;;;;11.55;5.00;;;31.40;51.60;;;;;;5045977;28;20025;-79
2021/08/29 06:26:41;;;;;;;7.13;4.65;;;31.60;51.30;;;;;;5041694;28;20092;-78
2021/08/29 06:29:07;;;;;;;6.65;4.90;;;31.70;51.40;;;;;;5041384;28;20121;-78
2021/08/29 06:31:32;;;;;;;6.95;4.93;;;31.80;51.60;;;;;;5043263;28;20055;-85
2021/08/29 06:33:58;;;;;;;7.32;4.60;;;31.80;51.80;;;;;;5043050;28;20026;-83
2021/08/29 06:36:24;;;;;;;7.60;4.47;;;31.90;51.10;;;;;;5040873;28;20018;-82
2021/08/29 06:38:49;;;;;;;5.97;4.38;;;32.00;51.10;;;;;;5042386;28;20441;-81
2021/08/29 06:41:15;;;;;;;9.02;5.22;;;32.20;51.00;;;;;;5042706;28;20365;-82
2021/08/29 06:43:40;;;;;;;5.78;4.90;;;32.30;50.50;;;;;;5042333;28;20057;-82
2021/08/29 06:46:06;;;;;;;9.10;5.53;;;32.50;50.40;;;;;;5042601;28;20029;-80
2021/08/29 06:48:32;;;;;;;7.63;4.80;;;32.60;49.80;;;;;;5041075;28;20468;-80
2021/08/29 06:50:58;;;;;;;7.15;4.90;;;32.80;49.70;;;;;;5039653;28;20045;-80
2021/08/29 06:53:23;;;;;;;6.72;4.97;;;32.90;49.90;;;;;;5048053;28;20456;-80
2021/08/29 06:55:49;;;;;;;7.68;4.50;;;32.80;49.50;;;;;;5047016;28;20028;-80
2021/08/29 06:58:17;;;;;;;6.32;4.82;;;32.80;49.70;;;;;;5043083;28;20025;-80
2021/08/29 07:00:42;;;;;;;8.23;5.00;;;32.80;50.00;;;;;;5043126;28;20040;-78
2021/08/29 07:03:08;;;;;;;8.75;4.97;;;32.70;50.00;;;;;;5042643;28;20021;-79
2021/08/29 07:05:34;;;;;;;9.77;5.05;;;32.20;50.10;;;;;;5043244;28;20049;-80
2021/08/29 07:07:59;;;;;;;9.27;5.10;;;32.10;51.00;;;;;;5040778;28;20063;-79
2021/08/29 07:10:25;;;;;;;9.15;5.03;;;32.30;51.50;;;;;;5042481;28;20029;-75
2021/08/29 07:12:51;;;;;;;11.00;4.70;;;32.60;51.30;;;;;;5041026;28;20025;-77
2021/08/29 07:15:16;;;;;;;8.73;5.30;;;32.70;50.80;;;;;;5038308;28;20052;-80
2021/08/29 07:17:42;;;;;;;8.93;5.32;;;32.90;50.60;;;;;;5052782;28;20103;-81
2021/08/29 07:20:08;;;;;;;10.23;5.30;;;33.20;50.20;;;;;;5045912;28;20365;-80
2021/08/29 07:22:34;;;;;;;8.77;5.60;;;33.50;50.40;;;;;;5034382;28;20044;-81
2021/08/29 07:25:00;;;;;;;10.00;5.32;;;33.70;49.20;;;;;;5032568;28;20146;-81
2021/08/29 07:27:26;;;;;;;11.20;5.78;;;34.00;49.20;;;;;;5034399;28;20087;-80
2021/08/29 07:29:51;;;;;;;9.57;5.38;;;34.20;49.00;;;;;;5032979;28;20120;-80
2021/08/29 07:32:17;;;;;;;11.05;6.10;;;34.20;48.40;;;;;;5034424;28;20022;-81
2021/08/29 07:34:43;;;;;;;7.88;6.97;;;34.40;48.50;;;;;;5032318;28;20387;-78
2021/08/29 07:37:09;;;;;;;8.82;6.88;;;34.50;47.60;;;;;;5034667;28;20073;-80
2021/08/29 07:39:34;;;;;;;8.55;6.05;;;34.40;47.30;;;;;;5032300;28;20021;-79
2021/08/29 07:42:00;;;;;;;12.38;5.70;;;34.30;48.10;;;;;;5046369;28;20040;-85
2021/08/29 07:44:26;;;;;;;7.93;6.97;;;34.40;47.90;;;;;;5061130;28;20467;-85
2021/08/29 07:46:51;;;;;;;9.27;6.18;;;34.50;47.90;;;;;;5051274;28;20026;-83
2021/08/29 07:49:17;;;;;;;8.45;5.93;;;34.60;48.20;;;;;;5033892;28;20037;-81
2021/08/29 07:51:43;;;;;;;8.32;5.95;;;34.70;47.90;;;;;;5032536;28;20032;-82
2021/08/29 07:54:08;;;;;;;7.05;5.72;;;34.70;47.50;;;;;;5032232;28;20388;-80
2021/08/29 07:56:34;;;;;;;12.85;6.07;;;34.80;47.80;;;;;;5033320;28;20482;-82
2021/08/29 07:59:00;;;;;;;9.73;5.57;;;34.90;48.10;;;;;;5041277;28;20029;-81
2021/08/29 08:01:26;;;;;;;8.15;5.65;;;35.00;48.00;;;;;;5053544;28;20029;-81
2021/08/29 08:03:52;;;;;;;7.53;6.10;;;35.00;47.40;;;;;;5052224;28;20136;-83
2021/08/29 08:06:17;;;;;;;9.27;5.60;;;35.00;47.20;;;;;;5052711;28;20099;-83
2021/08/29 08:08:43;;;;;;;8.73;5.90;;;35.00;46.90;;;;;;5056420;28;20509;-82
2021/08/29 08:11:09;;;;;;;7.07;5.78;;;35.10;46.60;;;;;;5055482;28;20025;-81
2021/08/29 08:13:34;;;;;;;11.70;5.97;;;35.20;46.60;;;;;;5053384;28;20033;-80
2021/08/29 08:16:01;;;;;;;8.43;6.20;;;35.30;46.40;;;;;;5053369;28;20025;-80
2021/08/29 08:18:26;;;;;;;9.02;6.20;;;35.50;46.20;;;;;;5052036;28;20095;-73
2021/08/29 08:20:53;;;;;;;8.68;5.97;;;35.80;46.50;;;;;;5043547;28;20049;-73
2021/08/29 08:23:19;;;;;;;8.07;5.80;;;35.80;46.60;;;;;;5042026;28;20036;-74
2021/08/29 08:25:45;;;;;;;7.75;5.50;;;35.90;47.20;;;;;;5042646;28;20025;-75
2021/08/29 08:28:10;;;;;;;9.05;6.70;;;36.00;46.10;;;;;;5037817;28;20032;-73
2021/08/29 08:30:36;;;;;;;8.02;6.30;;;36.20;46.10;;;;;;5042982;28;20032;-72
2021/08/29 08:33:02;;;;;;;12.05;6.03;;;36.20;45.40;;;;;;5044656;28;20468;-73
2021/08/29 08:35:28;;;;;;;8.30;6.00;;;36.20;45.40;;;;;;5040288;28;20029;-71
2021/08/29 08:37:54;;;;;;;8.63;6.20;;;36.30;45.30;;;;;;5041958;28;20021;-74
2021/08/29 08:40:21;;;;;;;8.43;6.10;;;36.20;45.80;;;;;;5040978;28;20029;-70
2021/08/29 08:42:48;;;;;;;9.27;6.43;;;36.10;45.30;;;;;;5041484;28;20026;-71
2021/08/29 08:45:14;;;;;;;10.02;6.10;;;36.20;45.60;;;;;;5040728;28;20033;-71
2021/08/29 08:47:44;;;;;;;8.85;5.40;;;36.20;45.60;;;;;;5041737;28;20030;-71
2021/08/29 08:50:14;;;;;;;7.35;5.53;;;36.40;46.00;;;;;;5039994;28;20021;-71
2021/08/29 08:52:41;;;;;;;8.65;6.20;;;36.50;45.50;;;;;;5054845;28;20028;-74
2021/08/29 08:55:07;;;;;;;11.23;6.63;;;36.70;44.70;;;;;;5050071;28;20380;-75
2021/08/29 08:57:34;;;;;;;13.07;6.88;;;36.70;44.10;;;;;;5036551;28;20041;-70
2021/08/29 08:59:59;;;;;;;11.18;7.78;;;36.70;44.00;;;;;;5036343;28;20036;-70
2021/08/29 09:02:25;;;;;;;10.65;8.02;;;36.70;44.50;;;;;;5036090;28;20396;-72
2021/08/29 09:04:52;;;;;;;12.80;10.25;;;36.90;44.40;;;;;;5036150;28;20403;-82
2021/08/29 09:07:19;;;;;;;10.95;8.27;;;37.00;43.50;;;;;;5040206;28;20469;-80
2021/08/29 09:09:45;;;;;;;8.52;7.30;;;37.20;43.50;;;;;;5048505;28;20377;-79
2021/08/29 09:12:11;;;;;;;14.10;9.40;;;37.30;43.20;;;;;;5042827;28;20021;-79
2021/08/29 09:14:45;;;;;;;10.88;8.65;;;37.40;42.80;;;;;;5037765;28;20040;-80
2021/08/29 09:17:24;;;;;;;15.20;10.25;;;37.40;42.60;;;;;;5040756;28;20030;-81
2021/08/29 09:19:50;;;;;;;11.73;10.10;;;37.30;43.60;;;;;;5054299;28;20071;-81
2021/08/29 09:22:27;;;;;;;13.40;10.32;;;37.50;43.60;;;;;;5050022;28;20079;-80
2021/08/29 09:24:52;;;;;;;12.43;9.73;;;37.80;43.10;;;;;;5050777;28;20028;-78
2021/08/29 09:27:23;;;;;;;15.02;13.55;;;37.90;43.20;;;;;;5047463;28;20029;-77
2021/08/29 09:29:50;;;;;;;18.08;15.35;;;38.00;42.60;;;;;;5039225;28;20377;-78
2021/08/29 09:32:19;;;;;;;17.25;14.45;;;38.20;42.50;;;;;;5038612;28;20021;-79
2021/08/29 09:34:56;;;;;;;11.40;9.77;;;38.30;42.50;;;;;;5054544;28;20028;-79
2021/08/29 09:37:22;;;;;;;11.27;9.02;;;38.30;42.00;;;;;;5054753;28;20071;-74
2021/08/29 09:39:48;;;;;;;15.38;12.73;;;38.30;41.90;;;;;;5054128;28;20021;-75
2021/08/29 09:42:14;;;;;;;16.42;10.63;;;38.40;41.70;;;;;;5054484;28;20025;-78
2021/08/29 09:44:40;;;;;;;10.20;7.18;;;38.20;41.40;;;;;;5050200;28;20494;-78
2021/08/29 09:47:06;;;;;;;10.70;7.65;;;37.80;40.80;;;;;;5034306;28;20032;-76
2021/08/29 09:49:35;;;;;;;11.73;8.68;;;37.30;41.60;;;;;;5034199;28;20120;-77
2021/08/29 09:52:03;;;;;;;13.45;9.02;;;37.00;42.40;;;;;;5049278;28;20025;-81
2021/08/29 09:54:43;;;;;;;10.43;8.43;;;36.80;42.90;;;;;;5035027;28;20021;-81
2021/08/29 09:57:13;;;;;;;9.18;7.60;;;36.90;42.70;;;;;;5045052;28;20025;-75
2021/08/29 09:59:47;;;;;;;10.23;8.20;;;37.00;42.70;;;;;;5053869;28;20025;-77
2021/08/29 10:02:23;;;;;;;10.63;7.80;;;37.30;43.00;;;;;;5054160;28;20024;-78
2021/08/29 10:05:13;;;;;;;11.05;7.53;;;37.40;42.50;;;;;;5054682;28;20053;-78
2021/08/29 10:08:00;;;;;;;9.45;7.10;;;37.50;42.40;;;;;;5053727;28;20025;-78
2021/08/29 10:10:31;;;;;;;9.00;6.78;;;37.40;42.50;;;;;;5048829;28;20061;-78
2021/08/29 10:12:57;;;;;;;9.30;7.03;;;37.40;41.90;;;;;;5050509;28;20032;-83
2021/08/29 10:15:24;;;;;;;7.75;6.65;;;37.20;41.60;;;;;;5043035;28;20025;-84
2021/08/29 10:17:51;;;;;;;9.63;7.80;;;37.10;41.30;;;;;;5041641;28;20476;-83
2021/08/29 10:20:20;;;;;;;9.27;7.00;;;36.90;41.40;;;;;;5044181;28;20108;-83
2021/08/29 10:22:49;;;;;;;13.88;8.93;;;36.90;41.60;;;;;;5050506;28;20047;-83
2021/08/29 10:25:17;;;;;;;9.02;7.85;;;37.10;42.10;;;;;;5039573;28;20083;-82
2021/08/29 10:27:48;;;;;;;9.38;7.93;;;37.20;42.10;;;;;;5045729;28;20027;-83
2021/08/29 10:30:15;;;;;;;8.13;6.78;;;36.90;42.10;;;;;;5043525;28;20028;-83
2021/08/29 10:32:45;;;;;;;8.75;7.13;;;36.50;41.90;;;;;;5043836;28;20021;-83
2021/08/29 10:35:13;;;;;;;9.35;7.97;;;36.30;42.00;;;;;;5034094;28;20060;-85
2021/08/29 10:37:43;;;;;;;13.02;7.78;;;36.30;42.70;;;;;;5034867;28;20033;-82
2021/08/29 10:40:11;;;;;;;8.88;7.00;;;36.50;42.40;;;;;;5038385;28;20472;-81
2021/08/29 10:42:42;;;;;;;11.60;8.25;;;36.70;42.10;;;;;;5038081;28;20025;-81
2021/08/29 10:45:09;;;;;;;12.57;10.88;;;36.80;42.30;;;;;;5033559;28;20029;-81
2021/08/29 10:47:37;;;;;;;8.40;7.45;;;37.10;42.50;;;;;;5033302;28;20032;-81
2021/08/29 10:50:05;;;;;;;8.07;6.32;;;37.40;42.00;;;;;;5042726;28;20025;-80
2021/08/29 10:52:36;;;;;;;8.93;7.13;;;37.50;41.60;;;;;;5054822;28;20032;-81
2021/08/29 10:55:08;;;;;;;11.60;6.95;;;37.30;41.30;;;;;;5046796;28;20025;-82
2021/08/29 10:57:38;;;;;;;9.00;7.13;;;37.10;41.90;;;;;;5048469;28;20021;-83
2021/08/29 11:00:07;;;;;;;10.20;6.85;;;36.90;42.00;;;;;;5047906;28;20044;-81
2021/08/29 11:02:52;;;;;;;10.43;7.32;;;36.80;41.70;;;;;;5039921;28;20030;-82
2021/08/29 11:05:29;;;;;;;9.65;7.45;;;36.50;42.00;;;;;;5033549;28;20495;-80
2021/08/29 11:07:56;;;;;;;8.95;7.00;;;36.10;42.50;;;;;;5033833;28;20437;-83
2021/08/29 11:10:37;;;;;;;9.75;7.50;;;35.60;42.50;;;;;;5033019;28;20044;-82
2021/08/29 11:13:33;;;;;;;8.63;6.40;;;35.30;43.10;;;;;;5044147;28;20364;-83
2021/08/29 11:16:13;;;;;;;9.63;7.03;;;35.40;43.50;;;;;;5039401;28;20499;-81
2021/08/29 11:19:01;;;;;;;10.30;7.28;;;35.50;43.70;;;;;;5045702;28;20033;-82
2021/08/29 11:21:36;;;;;;;9.93;7.57;;;35.70;43.90;;;;;;5053517;28;20028;-81
2021/08/29 11:24:03;;;;;;;9.80;7.75;;;35.70;43.30;;;;;;5053715;28;20025;-82
2021/08/29 11:26:35;;;;;;;10.38;7.63;;;35.80;43.10;;;;;;5052494;28;20021;-81
2021/08/29 11:29:00;;;;;;;11.02;8.02;;;35.70;43.20;;;;;;5052565;28;20037;-82
2021/08/29 11:31:51;;;;;;;9.90;7.55;;;35.50;43.60;;;;;;5052304;28;20021;-81
2021/08/29 11:34:18;;;;;;;12.07;7.85;;;35.50;44.30;;;;;;5051859;28;20025;-81
2021/08/29 11:36:44;;;;;;;10.40;7.78;;;35.40;44.80;;;;;;5052155;28;20071;-83
2021/08/29 11:39:37;;;;;;;9.65;7.95;;;35.30;44.70;;;;;;5053413;28;20043;-82
2021/08/29 11:42:19;;;;;;;11.90;8.15;;;34.70;44.80;;;;;;5052061;28;20025;-81
2021/08/29 11:44:46;;;;;;;9.70;7.93;;;34.00;45.90;;;;;;5049868;28;20024;-80
2021/08/29 11:47:13;;;;;;;12.15;8.35;;;33.30;46.90;;;;;;5032084;28;20026;-81
2021/08/29 11:49:39;;;;;;;10.27;8.13;;;32.70;47.70;;;;;;5048420;28;20506;-81
2021/08/29 11:52:05;;;;;;;11.90;8.52;;;32.20;48.90;;;;;;5052282;28;20083;-79
2021/08/29 11:54:31;;;;;;;12.18;9.15;;;31.90;49.90;;;;;;5053218;28;20108;-79
2021/08/29 11:56:57;;;;;;;9.95;8.82;;;31.60;50.90;;;;;;5035533;28;20108;-74
2021/08/29 11:59:31;;;;;;;10.38;8.27;;;31.50;51.60;;;;;;5031699;28;20045;-75
2021/08/29 12:02:00;;;;;;;12.85;9.25;;;31.50;52.50;;;;;;5032287;28;20448;-79
2021/08/29 12:04:26;;;;;;;13.18;10.13;;;31.50;52.60;;;;;;5031952;28;20053;-69
2021/08/29 12:07:08;;;;;;;14.85;9.48;;;31.40;52.20;;;;;;5033276;28;20029;-69
2021/08/29 12:09:42;;;;;;;14.02;10.70;;;31.40;52.60;;;;;;5033346;28;20399;-81
2021/08/29 12:12:16;;;;;;;12.20;10.23;;;31.40;52.60;;;;;;5033247;28;20087;-76
2021/08/29 12:14:43;;;;;;;12.75;10.15;;;31.40;52.00;;;;;;5031918;28;20121;-78
2021/08/29 12:17:13;;;;;;;14.55;10.27;;;31.20;51.80;;;;;;5035124;28;20025;-79
2021/08/29 12:19:40;;;;;;;12.85;10.75;;;30.80;51.80;;;;;;5036224;28;20029;-78
2021/08/29 12:22:09;;;;;;;13.57;10.70;;;30.70;52.70;;;;;;5031913;28;20450;-76
2021/08/29 12:24:37;;;;;;;13.45;10.32;;;30.70;53.00;;;;;;5032872;28;20029;-76
2021/08/29 12:27:15;;;;;;;11.27;10.00;;;30.70;53.40;;;;;;5035777;28;20030;-76
2021/08/29 12:29:49;;;;;;;15.10;11.38;;;30.50;53.20;;;;;;5034088;28;20038;-77
2021/08/29 12:32:17;;;;;;;12.90;10.13;;;30.40;53.70;;;;;;5034590;28;20104;-76
2021/08/29 12:34:53;;;;;;;14.55;10.90;;;30.30;53.80;;;;;;5034252;28;20026;-75
2021/08/29 12:37:20;;;;;;;14.27;11.25;;;30.30;53.90;;;;;;5034836;28;20433;-76
2021/08/29 12:40:16;;;;;;;14.25;11.50;;;30.30;54.20;;;;;;5034501;28;20036;-76
2021/08/29 12:42:46;;;;;;;14.13;9.98;;;30.20;54.80;;;;;;5034335;28;20072;-76
2021/08/29 12:45:16;;;;;;;14.02;10.20;;;30.10;55.00;;;;;;5035351;28;20067;-75
2021/08/29 12:47:43;;;;;;;14.32;10.93;;;30.10;55.30;;;;;;5036413;28;20064;-76